Main page
Satellite images 15-day forecastsClimateMarine weather Cyclones Lightning AirportsFAQ Newsletter About
Weather : Europe Africa North America South America Asia Australia-Oceania Others
Languages Contact

Tel Aviv / Ben Gurion, Israel

latitude: 32-00N, longitude: 034-54E, elevation: 40 m


METAR: LLBG 241750Z 09005KT CAVOK 22/12 Q1017 NOSIG
TAF: LLBG 241705Z 2418/2518 12005KT CAVOK BECMG 2507/2509 30010KT TX30/2510Z TN16/2503Z

Time: 21:00 (18:00 UTC)

Current weather observation

The report was made 10 minutes ago, at 17:50 UTC
Wind 5 kt from the East
Temperature 22°C
Humidity 53%
Pressure 1017 hPa
Visibility 10 km or more
no clouds below 1500 m and no cumulonimbus

Change units

Forecast

The report was made 55 minutes ago, at 17:05 UTC
Forecast valid from 24 at 18 UTC to 25 at 18 UTC
Wind 5 kt from the East/Southeast
Visibility 10 km or more
no clouds below 1500 m and no cumulonimbus
Becoming
from 25 at 07 UTC to 25 at 09 UTC
Wind 10 kt from the West/Northwest
The information on this site is subject to a disclaimer
Weather : Europe Africa North America South America Asia Australia-Oceania Others
Satellite images 15-day forecastsClimateMarine weather Cyclones Lightning AirportsFAQ Languages Contact Newsletter About